Terminal Aerodrome Forecast
Issued by NWS

Home | Current Version | Previous Version | Text Only | Print | Product List | Glossary On
Versions: 1 2 3 4 5 6 7 8 9 10 11 12 13 14 15 16 17 18 19 20 21 22 23 24 25 26 27 28
000
FTUS45 KRIW 271120
TAFPNA
TAF
KPNA 271120Z 2712/2812 VRB06KT 1 1/2SM -SN OVC010
     FM271600 VRB06KT 3SM -SN SCT015 OVC030
     FM271800 VRB06KT P6SM VCSH SCT015 BKN035
     FM272300 30008KT 4SM -SHSN SCT015 BKN025
     FM280300 29008KT P6SM SCT035 BKN050
      AMD LTD TO CLD VIS AND WIND=

USA.gov is the U.S. government's official web portal to all federal, state and local government web resources and services.